Time;durP1;ratioP1;P1;durP2;ratioP2;P2;SDS_P1;SDS_P2;PMS_P1;PMS_P2;Temp;Humidity;BMP_temperature;BMP_pressure;BME280_temperature;BME280_humidity;BME280_pressure;Samples;Min_cycle;Max_cycle;Signal;HPM_P1;HPM_P2
2021/07/06 00:01:47;;;;;;;1.90;1.40;;;25.20;57.30;;;;;;4936654;29;20420;-86
2021/07/06 00:04:16;;;;;;;4.10;1.40;;;25.20;57.30;;;;;;4934107;29;20423;-86
2021/07/06 00:06:42;;;;;;;2.20;1.43;;;25.20;57.30;;;;;;4933216;29;20427;-86
2021/07/06 00:09:08;;;;;;;1.60;1.20;;;25.20;57.30;;;;;;4932758;29;20424;-86
2021/07/06 00:11:34;;;;;;;1.90;1.23;;;25.20;57.30;;;;;;4933768;29;20424;-87
2021/07/06 00:14:01;;;;;;;3.20;1.43;;;25.20;57.30;;;;;;4934377;29;20419;-86
2021/07/06 00:16:26;;;;;;;3.50;1.17;;;25.20;57.30;;;;;;4934086;29;20894;-86
2021/07/06 00:18:56;;;;;;;2.03;1.23;;;25.20;57.20;;;;;;4933612;29;20467;-86
2021/07/06 00:21:25;;;;;;;2.60;1.30;;;25.20;57.20;;;;;;4933668;29;20507;-86
2021/07/06 00:23:51;;;;;;;2.10;1.30;;;25.20;57.20;;;;;;4932043;29;20450;-86
2021/07/06 00:26:18;;;;;;;3.33;1.40;;;25.20;57.20;;;;;;4933064;29;20895;-86
2021/07/06 00:28:45;;;;;;;2.93;1.37;;;25.20;57.20;;;;;;4935969;29;20428;-86
2021/07/06 00:31:13;;;;;;;2.77;1.30;;;25.20;57.20;;;;;;4936290;29;20810;-86
2021/07/06 00:33:46;;;;;;;1.53;1.27;;;25.20;57.20;;;;;;4936212;29;20432;-86
2021/07/06 00:36:13;;;;;;;2.30;1.40;;;25.20;57.20;;;;;;4936551;29;20420;-86
2021/07/06 00:38:46;;;;;;;2.60;1.40;;;25.20;57.20;;;;;;4936364;29;20435;-86
2021/07/06 00:41:13;;;;;;;1.73;1.20;;;25.20;57.20;;;;;;4936352;29;20418;-86
2021/07/06 00:43:40;;;;;;;1.90;1.43;;;25.20;57.20;;;;;;4920269;29;20451;-86
2021/07/06 00:46:11;;;;;;;1.87;1.23;;;25.20;57.20;;;;;;4935764;29;20432;-86
2021/07/06 00:48:38;;;;;;;1.50;1.27;;;25.20;57.20;;;;;;4936002;29;20513;-86
2021/07/06 00:51:06;;;;;;;2.63;1.63;;;25.20;57.20;;;;;;4935796;29;20416;-86
2021/07/06 00:53:32;;;;;;;3.13;1.43;;;25.20;57.20;;;;;;4936237;29;20412;-86
2021/07/06 00:56:02;;;;;;;6.13;1.27;;;25.10;57.10;;;;;;4936109;29;20419;-86
2021/07/06 00:58:32;;;;;;;2.60;1.30;;;25.20;57.10;;;;;;4935331;29;20441;-86
2021/07/06 01:01:00;;;;;;;3.53;1.43;;;25.10;57.10;;;;;;4936399;29;20424;-85
2021/07/06 01:03:28;;;;;;;1.80;1.17;;;25.20;57.20;;;;;;4936168;29;20420;-85
2021/07/06 01:05:54;;;;;;;5.00;1.40;;;25.10;57.00;;;;;;4936118;29;20456;-85
2021/07/06 01:08:22;;;;;;;2.43;1.40;;;25.10;57.10;;;;;;4936303;29;20408;-85
2021/07/06 01:10:51;;;;;;;2.17;1.23;;;25.10;57.00;;;;;;4937284;29;20930;-85
2021/07/06 01:13:22;;;;;;;1.23;1.10;;;25.10;57.00;;;;;;4938602;29;20426;-86
2021/07/06 01:15:51;;;;;;;2.47;1.60;;;25.10;57.00;;;;;;4936439;29;20847;-86
2021/07/06 01:18:18;;;;;;;1.30;1.10;;;25.20;57.00;;;;;;4937855;29;20435;-85
2021/07/06 01:20:51;;;;;;;3.63;1.30;;;25.20;57.00;;;;;;4937381;29;20463;-85
2021/07/06 01:23:26;;;;;;;1.70;1.17;;;25.10;57.00;;;;;;4937424;29;20439;-86
2021/07/06 01:25:54;;;;;;;1.90;1.17;;;25.10;56.90;;;;;;4937845;29;20427;-86
2021/07/06 01:28:23;;;;;;;1.80;1.30;;;25.10;56.90;;;;;;4937156;29;20423;-85
2021/07/06 01:30:50;;;;;;;1.50;1.20;;;25.20;57.00;;;;;;4936148;29;20499;-85
2021/07/06 01:33:26;;;;;;;1.70;1.47;;;25.10;56.90;;;;;;4935029;29;20454;-85
2021/07/06 01:36:07;;;;;;;2.37;1.50;;;25.10;56.90;;;;;;4935605;29;20484;-85
2021/07/06 01:38:41;;;;;;;2.13;1.30;;;25.10;56.90;;;;;;4936644;29;20414;-85
2021/07/06 01:41:08;;;;;;;3.73;1.30;;;25.10;56.90;;;;;;4935055;29;20439;-85
2021/07/06 01:43:35;;;;;;;1.40;0.97;;;25.10;56.90;;;;;;4919680;29;20427;-86
2021/07/06 01:46:03;;;;;;;3.87;1.57;;;25.10;56.90;;;;;;4920454;29;20430;-85
2021/07/06 01:48:31;;;;;;;2.23;1.10;;;25.10;56.90;;;;;;4935083;29;20475;-86
2021/07/06 01:50:58;;;;;;;4.47;1.70;;;25.10;56.90;;;;;;4935222;29;20435;-87
2021/07/06 01:53:28;;;;;;;2.37;1.47;;;25.10;56.90;;;;;;4936026;29;20396;-86
2021/07/06 01:55:58;;;;;;;1.47;1.23;;;25.10;56.80;;;;;;4935044;29;20441;-86
2021/07/06 01:58:27;;;;;;;2.17;1.33;;;25.10;56.90;;;;;;4934634;29;20416;-86
2021/07/06 02:00:59;;;;;;;2.50;1.20;;;25.10;56.90;;;;;;4937427;29;20443;-86
2021/07/06 02:03:26;;;;;;;2.03;1.10;;;25.10;56.80;;;;;;4919170;29;20431;-86
2021/07/06 02:05:57;;;;;;;5.17;1.57;;;25.10;56.90;;;;;;4917231;29;20432;-86
2021/07/06 02:08:24;;;;;;;9.80;1.80;;;25.10;56.80;;;;;;4934893;29;20463;-86
2021/07/06 02:10:53;;;;;;;3.10;1.00;;;25.10;56.80;;;;;;4933162;29;20452;-86
2021/07/06 02:13:23;;;;;;;3.50;1.10;;;25.10;56.80;;;;;;4928060;29;20491;-86
2021/07/06 02:15:52;;;;;;;2.30;1.13;;;25.10;56.80;;;;;;4933610;29;20447;-86
2021/07/06 02:21:40;;;;;;;3.07;1.60;;;25.10;56.80;;;;;;4932852;29;20411;-86
2021/07/06 02:24:06;;;;;;;2.90;1.40;;;25.00;56.80;;;;;;4934708;29;20439;-86
2021/07/06 02:26:33;;;;;;;1.20;1.10;;;25.00;56.80;;;;;;4934273;29;20183;-86
2021/07/06 02:29:00;;;;;;;1.50;1.10;;;25.10;56.80;;;;;;4917979;29;20428;-87
2021/07/06 02:31:26;;;;;;;4.10;1.30;;;25.00;56.80;;;;;;4933988;29;20432;-86
2021/07/06 02:33:53;;;;;;;3.57;1.57;;;25.10;56.80;;;;;;4933586;29;20428;-86
2021/07/06 02:36:26;;;;;;;1.50;1.17;;;25.00;56.70;;;;;;4930963;29;20468;-86
2021/07/06 02:39:02;;;;;;;2.77;1.33;;;25.00;57.30;;;;;;4935621;29;20795;-86
2021/07/06 02:44:53;;;;;;;1.60;1.27;;;25.10;56.70;;;;;;4867381;29;20443;-87
2021/07/06 02:47:19;;;;;;;1.80;1.20;;;25.00;56.80;;;;;;4864979;29;20427;-86
2021/07/06 02:49:48;;;;;;;1.40;1.30;;;25.00;56.90;;;;;;4863417;29;20458;-86
2021/07/06 02:52:20;;;;;;;1.10;0.93;;;25.00;57.50;;;;;;4863443;29;20455;-85
2021/07/06 02:54:48;;;;;;;1.47;1.30;;;24.90;56.80;;;;;;4835782;29;20454;-85
2021/07/06 02:57:34;;;;;;;3.20;1.30;;;24.90;56.90;;;;;;4863895;29;20453;-86
2021/07/06 03:00:13;;;;;;;3.50;1.60;;;24.90;56.90;;;;;;4863079;29;20453;-86
2021/07/06 03:02:46;;;;;;;1.83;1.43;;;24.90;57.00;;;;;;4859780;29;20469;-86
2021/07/06 03:05:17;;;;;;;3.87;1.40;;;24.90;57.00;;;;;;4851875;29;20423;-86
2021/07/06 03:07:46;;;;;;;1.60;1.33;;;24.90;57.00;;;;;;4849997;29;20437;-86
2021/07/06 03:10:15;;;;;;;1.60;1.23;;;24.90;57.00;;;;;;4864627;29;20948;-86
2021/07/06 03:12:46;;;;;;;1.40;1.30;;;24.90;57.10;;;;;;4861420;29;20487;-85
2021/07/06 03:15:18;;;;;;;1.30;1.10;;;24.90;57.10;;;;;;4861851;29;20426;-85
2021/07/06 03:18:10;;;;;;;1.40;1.20;;;24.90;57.10;;;;;;4862754;29;20468;-85
2021/07/06 03:20:40;;;;;;;1.87;1.20;;;24.80;57.00;;;;;;4861111;29;20550;-86
2021/07/06 03:23:12;;;;;;;2.00;1.20;;;24.80;57.10;;;;;;4870180;29;20461;-85
2021/07/06 03:25:40;;;;;;;2.53;1.30;;;24.80;57.10;;;;;;4857388;29;20439;-86
2021/07/06 03:28:06;;;;;;;1.97;1.40;;;24.80;57.10;;;;;;4860390;29;20441;-86
2021/07/06 03:30:36;;;;;;;2.50;1.37;;;24.80;57.10;;;;;;4855157;29;20439;-86
2021/07/06 03:33:07;;;;;;;1.40;1.00;;;24.80;57.10;;;;;;4858910;29;20455;-85
2021/07/06 03:35:33;;;;;;;1.90;1.47;;;24.80;57.10;;;;;;4933672;29;20444;-87
2021/07/06 03:38:00;;;;;;;2.60;1.20;;;24.80;57.10;;;;;;4936895;29;20423;-87
2021/07/06 03:40:27;;;;;;;1.50;1.20;;;24.80;57.10;;;;;;4934281;29;20451;-88
2021/07/06 03:42:56;;;;;;;3.20;1.30;;;24.80;57.10;;;;;;4935877;29;20428;-87
2021/07/06 03:45:27;;;;;;;2.37;1.50;;;24.80;57.10;;;;;;4936718;29;20424;-87
2021/07/06 03:47:53;;;;;;;2.00;1.30;;;24.80;57.10;;;;;;4935537;29;20459;-87
2021/07/06 03:50:22;;;;;;;1.83;1.30;;;24.80;57.10;;;;;;4933797;29;20451;-87
2021/07/06 03:52:55;;;;;;;1.67;1.20;;;24.80;57.00;;;;;;4929302;29;20440;-87
2021/07/06 03:55:21;;;;;;;1.90;1.70;;;24.80;57.00;;;;;;4934845;29;20435;-87
2021/07/06 03:57:47;;;;;;;3.17;1.40;;;24.80;57.00;;;;;;4934583;29;20436;-86
2021/07/06 04:00:22;;;;;;;2.33;1.60;;;24.80;57.00;;;;;;4935265;29;20455;-86
2021/07/06 04:02:50;;;;;;;3.97;1.93;;;24.80;56.90;;;;;;4937307;29;20411;-86
2021/07/06 04:05:16;;;;;;;1.40;1.13;;;24.80;56.90;;;;;;4934871;29;20495;-87
2021/07/06 04:07:42;;;;;;;2.27;1.30;;;24.80;56.90;;;;;;4929889;29;20411;-87
2021/07/06 04:10:11;;;;;;;1.37;1.20;;;24.80;57.00;;;;;;4936099;29;20436;-85
2021/07/06 04:12:40;;;;;;;2.63;1.50;;;24.90;57.00;;;;;;4935758;29;20423;-88
2021/07/06 04:15:10;;;;;;;1.67;1.23;;;24.90;57.00;;;;;;4932618;29;20835;-86
2021/07/06 04:17:37;;;;;;;4.33;1.47;;;24.90;57.00;;;;;;4926372;29;20496;-86
2021/07/06 04:20:06;;;;;;;1.40;1.20;;;24.90;57.00;;;;;;4930905;29;20480;-84
2021/07/06 04:22:37;;;;;;;1.60;1.20;;;24.90;56.90;;;;;;4929264;29;20449;-86
2021/07/06 04:25:06;;;;;;;4.83;1.60;;;24.90;57.00;;;;;;4917512;29;20460;-87
2021/07/06 04:27:36;;;;;;;3.17;2.43;;;24.90;56.90;;;;;;4928957;29;20470;-87
2021/07/06 04:30:03;;;;;;;4.30;1.40;;;24.90;56.90;;;;;;4932138;29;20922;-86
2021/07/06 04:32:30;;;;;;;2.03;1.20;;;24.90;56.90;;;;;;4928401;29;20433;-86
2021/07/06 04:35:00;;;;;;;4.63;1.20;;;25.00;57.00;;;;;;4925739;29;20446;-87
2021/07/06 04:37:29;;;;;;;2.07;1.37;;;25.00;57.00;;;;;;4921577;29;20420;-87
2021/07/06 04:40:00;;;;;;;1.83;1.20;;;25.00;57.00;;;;;;4935481;29;20487;-87
2021/07/06 04:42:28;;;;;;;1.70;1.30;;;25.00;57.00;;;;;;4918640;29;20432;-87
2021/07/06 04:44:56;;;;;;;5.47;1.60;;;25.00;57.00;;;;;;4922976;29;20438;-87
2021/07/06 04:47:23;;;;;;;2.40;1.23;;;25.00;57.20;;;;;;4927526;29;20907;-87
2021/07/06 04:49:50;;;;;;;3.80;1.60;;;25.00;57.00;;;;;;4934825;29;20432;-87
2021/07/06 04:52:24;;;;;;;2.13;1.20;;;25.00;56.90;;;;;;4930365;29;20432;-87
2021/07/06 04:54:51;;;;;;;1.33;1.23;;;25.00;56.90;;;;;;4922943;29;20428;-87
2021/07/06 05:07:24;;;;;;;2.57;1.23;;;25.00;56.80;;;;;;4933118;29;20403;-89
2021/07/06 05:09:53;;;;;;;2.30;1.10;;;25.00;56.90;;;;;;4933058;29;20499;-88
2021/07/06 05:12:22;;;;;;;1.80;1.20;;;25.00;56.80;;;;;;4932152;29;20491;-89
2021/07/06 05:15:00;;;;;;;1.10;0.93;;;25.10;56.80;;;;;;4932187;29;20428;-89
2021/07/06 05:17:30;;;;;;;1.97;1.10;;;25.00;56.80;;;;;;4931657;29;20502;-89
2021/07/06 05:22:48;;;;;;;1.20;1.10;;;25.00;56.80;;;;;;4929622;29;20451;-88
2021/07/06 05:25:17;;;;;;;1.80;1.27;;;25.10;56.80;;;;;;4932030;29;20432;-88
2021/07/06 05:28:02;;;;;;;2.00;1.10;;;25.10;56.80;;;;;;4931983;29;20423;-88
2021/07/06 05:30:37;;;;;;;1.63;1.53;;;25.10;56.80;;;;;;4931935;29;20507;-87
2021/07/06 05:33:03;;;;;;;2.30;1.50;;;25.10;56.80;;;;;;4932488;29;20427;-88
2021/07/06 05:35:32;;;;;;;2.70;1.27;;;25.10;56.80;;;;;;4916104;29;20439;-89
2021/07/06 05:38:06;;;;;;;1.60;1.30;;;25.10;56.80;;;;;;4932006;29;20443;-88
2021/07/06 05:40:38;;;;;;;1.93;1.00;;;25.20;56.80;;;;;;4931981;29;20495;-88
2021/07/06 05:43:12;;;;;;;1.57;1.20;;;25.10;56.70;;;;;;4931943;29;20415;-89
2021/07/06 05:45:48;;;;;;;1.60;1.10;;;25.10;56.70;;;;;;4931389;29;20428;-88
2021/07/06 05:48:25;;;;;;;;;;;;;;;;;;;;;
2021/07/06 05:50:54;;;;;;;1.30;1.10;;;25.10;56.70;;;;;;4932862;29;20408;-88
2021/07/06 05:53:43;;;;;;;1.90;1.57;;;25.10;56.70;;;;;;4931511;29;20487;-88
2021/07/06 05:56:20;;;;;;;1.40;1.17;;;25.10;56.60;;;;;;4933015;29;20427;-89
2021/07/06 05:58:49;;;;;;;2.83;1.40;;;25.10;56.70;;;;;;4931623;29;20471;-89
2021/07/06 06:01:16;;;;;;;1.23;0.97;;;25.10;56.70;;;;;;4929526;29;20424;-88
2021/07/06 06:03:43;;;;;;;1.40;1.27;;;25.20;56.80;;;;;;4943815;29;20503;-89
2021/07/06 06:06:18;;;;;;;1.53;1.20;;;25.20;56.70;;;;;;4927898;29;20423;-89
2021/07/06 06:08:47;;;;;;;1.63;1.10;;;25.20;56.70;;;;;;4929110;29;20843;-89
2021/07/06 06:11:16;;;;;;;1.63;1.07;;;25.30;56.80;;;;;;4927984;29;20415;-89
2021/07/06 06:13:48;;;;;;;1.27;0.93;;;25.30;57.40;;;;;;4927889;29;20427;-88
2021/07/06 06:16:14;;;;;;;1.67;1.43;;;25.30;56.80;;;;;;4926823;29;20436;-88
2021/07/06 06:18:40;;;;;;;3.90;1.27;;;25.40;56.80;;;;;;4926013;29;20416;-88
2021/07/06 06:21:08;;;;;;;2.57;1.20;;;25.40;56.80;;;;;;4927144;29;20634;-88
2021/07/06 06:23:37;;;;;;;1.63;1.27;;;25.40;56.90;;;;;;4926023;29;20480;-87
2021/07/06 06:26:03;;;;;;;3.10;1.30;;;25.40;56.80;;;;;;4926293;29;20428;-89
2021/07/06 06:28:29;;;;;;;3.33;1.70;;;25.40;56.60;;;;;;4926729;29;20432;-89
2021/07/06 06:31:00;;;;;;;2.10;1.10;;;25.40;56.70;;;;;;4927797;29;20478;-89
2021/07/06 06:33:29;;;;;;;1.33;1.10;;;25.50;56.70;;;;;;4925381;29;20416;-90
2021/07/06 06:36:04;;;;;;;1.80;0.97;;;25.50;56.70;;;;;;4926630;29;20491;-89
2021/07/06 06:38:30;;;;;;;1.40;1.17;;;25.50;56.60;;;;;;4942525;29;20412;-87
2021/07/06 06:40:56;;;;;;;1.20;1.10;;;25.50;56.70;;;;;;4928001;29;20811;-87
2021/07/06 06:43:30;;;;;;;1.10;1.00;;;25.50;56.70;;;;;;4930290;29;20423;-88
2021/07/06 06:46:05;;;;;;;4.40;1.20;;;25.50;56.50;;;;;;4930034;29;20155;-88
2021/07/06 06:48:35;;;;;;;1.87;1.10;;;25.60;56.60;;;;;;4931600;29;20416;-89
2021/07/06 06:51:00;;;;;;;1.50;1.40;;;25.50;56.60;;;;;;4931370;29;20408;-87
2021/07/06 06:53:29;;;;;;;1.70;1.40;;;25.60;56.70;;;;;;4908223;29;20464;-87
2021/07/06 06:55:55;;;;;;;1.43;1.13;;;25.60;56.60;;;;;;4908433;29;20184;-87
2021/07/06 06:58:21;;;;;;;3.50;1.40;;;25.60;56.70;;;;;;4908164;29;20837;-87
2021/07/06 07:00:47;;;;;;;1.20;1.10;;;25.60;56.70;;;;;;4923996;29;20232;-88
2021/07/06 07:03:12;;;;;;;1.90;1.20;;;25.60;56.70;;;;;;4923639;29;20185;-88
2021/07/06 07:05:38;;;;;;;1.53;1.43;;;25.60;56.60;;;;;;4906906;29;20425;-88
2021/07/06 07:08:04;;;;;;;1.30;1.10;;;25.60;56.60;;;;;;4907610;29;20227;-88
2021/07/06 07:10:31;;;;;;;1.53;1.13;;;25.60;56.50;;;;;;4907300;29;20601;-88
2021/07/06 07:12:57;;;;;;;1.20;1.00;;;25.60;56.50;;;;;;4907911;29;20436;-88
2021/07/06 07:15:23;;;;;;;1.10;1.00;;;25.60;56.50;;;;;;4907086;29;20443;-88
2021/07/06 07:17:52;;;;;;;1.77;0.93;;;25.70;56.60;;;;;;4907410;29;20420;-89
2021/07/06 07:23:40;;;;;;;1.17;1.07;;;25.70;56.50;;;;;;4907424;29;20432;-88
2021/07/06 07:26:08;;;;;;;2.07;1.20;;;25.60;56.40;;;;;;4906924;29;20412;-87
2021/07/06 07:28:40;;;;;;;1.40;0.90;;;25.70;56.70;;;;;;4907384;29;20177;-88
2021/07/06 07:31:18;;;;;;;1.97;1.37;;;25.70;56.60;;;;;;4908378;29;20940;-87
2021/07/06 07:33:50;;;;;;;1.33;0.90;;;25.70;56.50;;;;;;4914218;29;20476;-85
2021/07/06 07:39:18;;;;;;;1.80;1.20;;;25.70;56.50;;;;;;4910827;29;20535;-85
2021/07/06 07:41:44;;;;;;;1.47;1.00;;;25.70;56.60;;;;;;4912556;29;20420;-85
2021/07/06 07:44:11;;;;;;;1.83;1.40;;;25.70;56.50;;;;;;4913114;29;20540;-84
2021/07/06 07:46:55;;;;;;;1.40;1.27;;;25.70;56.60;;;;;;4913694;29;20412;-85
2021/07/06 07:49:27;;;;;;;1.80;1.20;;;25.80;56.60;;;;;;4914143;29;20479;-85
2021/07/06 07:59:14;;;;;;;;;;;;;;;;;;;;;
2021/07/06 08:01:43;;;;;;;2.60;1.70;;;25.70;56.60;;;;;;4877556;29;20415;-85
2021/07/06 08:04:10;;;;;;;4.20;1.73;;;25.70;56.60;;;;;;4860942;29;20518;-85
2021/07/06 08:06:37;;;;;;;1.57;1.40;;;25.70;56.60;;;;;;4860489;29;20423;-85
2021/07/06 08:09:16;;;;;;;2.53;1.90;;;25.80;56.60;;;;;;4876320;29;20534;-84
2021/07/06 08:11:43;;;;;;;2.63;1.90;;;25.80;56.60;;;;;;4860215;29;20426;-84
2021/07/06 08:14:16;;;;;;;3.40;1.80;;;25.70;56.50;;;;;;4859496;29;20441;-85
2021/07/06 08:16:46;;;;;;;3.93;2.20;;;25.80;56.60;;;;;;4874533;29;20908;-85
2021/07/06 08:19:15;;;;;;;2.60;1.60;;;25.80;56.60;;;;;;4858992;29;20470;-85
2021/07/06 08:21:41;;;;;;;3.33;2.33;;;25.80;56.50;;;;;;4874348;29;20518;-84
2021/07/06 08:27:34;;;;;;;2.83;2.07;;;25.80;56.50;;;;;;4874284;29;20422;-85
2021/07/06 08:30:15;;;;;;;2.37;1.80;;;25.80;56.40;;;;;;4911271;29;20440;-85
2021/07/06 08:32:43;;;;;;;2.33;1.77;;;25.80;56.50;;;;;;4920319;29;20454;-85
2021/07/06 08:35:15;;;;;;;3.00;2.27;;;25.80;56.40;;;;;;4932889;29;20420;-85
2021/07/06 08:37:46;;;;;;;1.97;1.77;;;25.80;56.40;;;;;;4932648;29;20801;-85
2021/07/06 08:40:12;;;;;;;2.07;1.70;;;25.90;56.60;;;;;;4932055;29;20446;-85
2021/07/06 08:42:42;;;;;;;3.57;2.70;;;25.90;56.50;;;;;;4929973;29;20912;-85
2021/07/06 08:45:14;;;;;;;3.57;2.00;;;25.90;56.50;;;;;;4930538;29;20426;-85
2021/07/06 08:47:49;;;;;;;2.20;2.00;;;25.90;56.50;;;;;;4931343;29;20404;-85
2021/07/06 08:54:01;;;;;;;3.20;1.93;;;25.90;56.50;;;;;;4933527;29;20411;-87
2021/07/06 08:56:40;;;;;;;1.97;1.70;;;25.90;56.50;;;;;;4933514;29;20412;-86
2021/07/06 08:59:08;;;;;;;2.83;2.20;;;25.90;56.50;;;;;;4931781;29;20468;-86
2021/07/06 09:01:37;;;;;;;2.40;2.20;;;25.90;56.50;;;;;;4930323;29;20520;-87
2021/07/06 09:04:05;;;;;;;3.33;2.30;;;25.90;56.50;;;;;;4929486;29;20507;-86
2021/07/06 09:06:59;;;;;;;3.43;1.90;;;25.90;56.50;;;;;;4932226;29;20483;-86
2021/07/06 09:09:28;;;;;;;2.70;2.03;;;25.90;56.40;;;;;;4931193;29;20428;-86
2021/07/06 09:12:00;;;;;;;2.43;2.07;;;25.90;56.40;;;;;;4947146;29;20456;-86
2021/07/06 09:14:33;;;;;;;2.60;2.40;;;25.90;56.50;;;;;;4946241;29;20432;-87
2021/07/06 11:15:27;;;;;;;3.60;2.00;;;26.10;56.60;;;;;;5165195;23;20501;-83
2021/07/06 11:18:30;;;;;;;2.43;1.77;;;26.10;56.60;;;;;;4919060;29;20405;-83
2021/07/06 11:21:06;;;;;;;;;;;;;;;;;;;;;
2021/07/06 11:23:51;;;;;;;2.60;1.90;;;26.10;56.50;;;;;;4935237;29;20459;-82
2021/07/06 11:30:26;;;;;;;2.13;1.47;;;26.10;56.40;;;;;;4911619;29;20568;-82
2021/07/06 11:33:31;;;;;;;1.67;1.57;;;26.10;56.50;;;;;;4897348;29;20475;-83
2021/07/06 11:36:27;;;;;;;;;;;;;;;;;;;;;
2021/07/06 11:39:02;;;;;;;1.50;1.23;;;26.00;56.40;;;;;;4911036;29;20452;-83
2021/07/06 11:51:59;;;;;;;3.60;1.90;;;26.00;56.50;;;;;;4788488;30;20478;-83
2021/07/06 11:54:53;;;;;;;2.13;1.60;;;26.00;56.50;;;;;;4793891;30;20428;-83
2021/07/06 11:57:34;;;;;;;2.40;1.50;;;26.00;56.50;;;;;;4770401;30;20472;-85
2021/07/06 12:00:16;;;;;;;2.00;1.60;;;26.00;56.50;;;;;;4767331;30;20487;-85
2021/07/06 12:03:28;;;;;;;2.87;1.57;;;26.10;56.50;;;;;;4766929;30;20438;-85
2021/07/06 12:06:21;;;;;;;2.13;1.40;;;26.00;56.40;;;;;;4782076;30;20431;-85
2021/07/06 12:08:51;;;;;;;2.33;1.60;;;26.00;56.50;;;;;;4782368;30;20413;-85
2021/07/06 12:11:25;;;;;;;2.20;1.50;;;25.90;56.40;;;;;;4782160;30;20424;-85
2021/07/06 12:13:59;;;;;;;2.57;1.87;;;26.00;56.50;;;;;;4752912;30;20424;-83
2021/07/06 12:16:33;;;;;;;1.83;1.53;;;25.90;56.50;;;;;;4766434;30;20419;-83
2021/07/06 12:19:36;;;;;;;2.17;1.50;;;25.90;56.40;;;;;;4766974;30;20415;-84
2021/07/06 12:22:06;;;;;;;1.83;1.53;;;26.00;56.40;;;;;;4768138;30;20415;-83
2021/07/06 12:24:34;;;;;;;2.20;1.50;;;25.90;56.40;;;;;;4803282;29;20546;-83
2021/07/06 12:27:02;;;;;;;1.70;1.57;;;25.90;56.40;;;;;;4879965;29;20789;-83
2021/07/06 12:29:30;;;;;;;1.73;1.47;;;25.90;56.40;;;;;;4891740;29;20421;-83
2021/07/06 12:35:59;;;;;;;1.90;1.50;;;25.90;56.40;;;;;;4916126;29;20361;-83
2021/07/06 12:38:33;;;;;;;2.03;1.60;;;25.90;56.50;;;;;;4915385;29;20497;-83
2021/07/06 12:41:02;;;;;;;1.90;1.17;;;25.90;56.50;;;;;;4914688;29;20453;-85
2021/07/06 12:43:57;;;;;;;3.77;1.63;;;25.90;56.60;;;;;;4916386;29;20416;-89
2021/07/06 12:46:30;;;;;;;2.20;1.50;;;25.90;56.50;;;;;;4915365;29;20421;-82
2021/07/06 12:49:00;;;;;;;2.40;1.70;;;25.90;56.60;;;;;;4916756;29;20404;-83
2021/07/06 12:51:26;;;;;;;1.70;1.50;;;25.90;56.60;;;;;;4915985;29;20417;-83
2021/07/06 12:54:09;;;;;;;1.63;1.33;;;25.90;56.50;;;;;;4934866;29;20412;-83
2021/07/06 12:56:35;;;;;;;2.30;1.60;;;25.90;56.60;;;;;;4933452;29;20460;-84
2021/07/06 12:59:25;;;;;;;2.00;1.40;;;25.90;56.60;;;;;;4934164;29;20424;-84
2021/07/06 13:01:54;;;;;;;1.73;1.30;;;25.90;56.50;;;;;;4919585;29;20436;-84
2021/07/06 13:04:53;;;;;;;5.80;1.70;;;25.90;56.50;;;;;;4933988;29;20487;-83
2021/07/06 13:07:26;;;;;;;2.20;1.60;;;25.90;56.50;;;;;;4934618;29;20436;-83
2021/07/06 13:10:18;;;;;;;1.83;1.20;;;25.80;56.50;;;;;;4934266;29;20439;-83
2021/07/06 13:12:53;;;;;;;2.83;1.33;;;25.90;56.50;;;;;;4935035;29;20456;-84
2021/07/06 13:15:39;;;;;;;1.73;1.20;;;25.80;56.50;;;;;;4934836;29;20459;-82
2021/07/06 13:18:11;;;;;;;1.30;1.03;;;25.90;56.60;;;;;;4933250;29;20419;-84
2021/07/06 13:20:43;;;;;;;2.00;1.40;;;25.80;56.50;;;;;;4934652;29;20447;-83
2021/07/06 13:23:10;;;;;;;2.47;1.27;;;25.80;56.60;;;;;;4932239;29;20492;-85
2021/07/06 13:25:44;;;;;;;2.23;1.50;;;25.80;56.60;;;;;;4930838;29;20809;-85
2021/07/06 13:28:15;;;;;;;2.27;1.30;;;25.80;56.50;;;;;;4930863;29;20427;-85
2021/07/06 13:30:43;;;;;;;3.00;1.50;;;25.80;56.60;;;;;;4930492;29;20428;-86
2021/07/06 13:33:22;;;;;;;2.40;1.47;;;25.80;56.60;;;;;;4930227;29;20439;-85
2021/07/06 13:36:06;;;;;;;3.47;1.40;;;25.80;56.60;;;;;;4930423;29;20947;-85
2021/07/06 13:38:32;;;;;;;1.67;1.50;;;25.80;56.60;;;;;;4930732;29;20449;-85
2021/07/06 13:41:00;;;;;;;1.33;1.20;;;25.80;56.60;;;;;;4930983;29;20522;-87
2021/07/06 13:43:36;;;;;;;2.30;1.90;;;25.80;56.70;;;;;;4930520;29;20828;-84
2021/07/06 13:46:03;;;;;;;2.00;1.33;;;25.80;56.70;;;;;;4913286;29;20440;-85
2021/07/06 13:48:46;;;;;;;2.20;1.50;;;25.80;56.70;;;;;;4929635;29;20428;-85
2021/07/06 13:51:13;;;;;;;1.33;1.10;;;25.80;56.60;;;;;;4915677;29;20427;-86
2021/07/06 13:53:39;;;;;;;1.80;1.30;;;25.80;56.70;;;;;;4929249;29;20495;-86
2021/07/06 13:56:06;;;;;;;1.60;1.33;;;25.80;56.70;;;;;;4946233;29;20424;-84
2021/07/06 13:58:32;;;;;;;2.27;1.27;;;25.80;56.70;;;;;;4930013;29;20423;-85
2021/07/06 14:04:22;;;;;;;1.67;1.40;;;25.80;56.60;;;;;;4931761;29;20388;-85
2021/07/06 14:06:51;;;;;;;4.33;1.10;;;25.70;56.70;;;;;;4929135;29;20491;-85
2021/07/06 14:19:38;;;;;;;2.00;1.42;;;25.70;56.70;;;;;;4817642;29;1661591;-85
2021/07/06 14:22:05;;;;;;;1.50;1.40;;;25.70;56.80;;;;;;4859437;29;20680;-85
2021/07/06 14:24:35;;;;;;;1.43;1.10;;;25.70;56.80;;;;;;4860406;29;20430;-85
2021/07/06 14:27:11;;;;;;;1.53;1.20;;;25.70;56.80;;;;;;4859162;29;20466;-85
2021/07/06 14:29:40;;;;;;;1.20;1.10;;;25.70;56.80;;;;;;4875488;29;20445;-85
2021/07/06 15:24:31;;;;;;;;;;;;;;;;;;;;;
2021/07/06 15:35:28;;;;;;;1.80;1.10;;;25.80;57.10;;;;;;5142674;23;20495;-83
2021/07/06 15:38:00;;;;;;;1.80;1.20;;;25.80;57.30;;;;;;4925296;29;20472;-83
2021/07/06 15:40:36;;;;;;;1.50;1.00;;;25.80;57.20;;;;;;4928262;29;20455;-84
2021/07/06 15:43:07;;;;;;;2.10;1.00;;;25.90;57.20;;;;;;4932905;29;20431;-84
2021/07/06 15:45:42;;;;;;;1.73;1.27;;;25.90;57.20;;;;;;4932980;29;20474;-84
2021/07/06 15:48:27;;;;;;;2.10;1.40;;;25.90;57.20;;;;;;4931385;29;20442;-84
2021/07/06 15:50:59;;;;;;;1.17;1.00;;;25.90;57.20;;;;;;4929273;29;20463;-84
2021/07/06 15:53:28;;;;;;;1.80;1.13;;;25.90;57.20;;;;;;4912688;29;20459;-83
2021/07/06 15:56:14;;;;;;;1.30;1.20;;;26.00;57.30;;;;;;4933295;29;20440;-82
2021/07/06 15:58:44;;;;;;;2.17;1.20;;;26.00;57.30;;;;;;4932215;29;20450;-83
2021/07/06 16:01:13;;;;;;;2.20;1.00;;;26.00;57.30;;;;;;4935520;29;20469;-82
2021/07/06 16:03:40;;;;;;;1.37;1.20;;;26.00;57.20;;;;;;4936202;29;20416;-83
2021/07/06 16:06:08;;;;;;;1.30;1.10;;;26.00;57.30;;;;;;4926728;29;20424;-82
2021/07/06 16:08:36;;;;;;;4.77;0.90;;;26.00;57.20;;;;;;4931189;29;20440;-83
2021/07/06 16:11:06;;;;;;;1.10;0.93;;;26.00;57.20;;;;;;4924567;29;20444;-82
2021/07/06 16:13:40;;;;;;;3.77;1.20;;;26.00;57.20;;;;;;4920007;29;20485;-82
2021/07/06 16:16:13;;;;;;;1.77;1.20;;;26.10;57.20;;;;;;4933791;29;20452;-83
2021/07/06 16:19:32;;;;;;;1.30;1.10;;;26.10;57.70;;;;;;4936921;29;20420;-85
2021/07/06 16:22:17;;;;;;;1.30;1.10;;;26.10;57.20;;;;;;4934738;29;20530;-84
2021/07/06 16:24:49;;;;;;;1.20;0.90;;;26.10;57.20;;;;;;4936955;29;20448;-84
2021/07/06 16:27:22;;;;;;;1.37;0.90;;;26.10;57.20;;;;;;4944423;29;20423;-85
2021/07/06 16:29:57;;;;;;;1.30;0.90;;;26.10;57.10;;;;;;4937034;29;20427;-86
2021/07/06 18:08:57;;;;;;;1.80;1.10;;;26.20;57.00;;;;;;4912532;29;20567;-86
2021/07/06 18:24:53;;;;;;;1.23;1.07;;;26.20;57.00;;;;;;4783437;27;20483;-86
2021/07/06 18:27:35;;;;;;;1.30;1.00;;;26.20;57.00;;;;;;4901675;29;20430;-86
2021/07/06 18:30:11;;;;;;;2.43;1.10;;;26.20;57.10;;;;;;4903676;29;20531;-89
2021/07/06 18:33:21;;;;;;;1.43;1.20;;;26.20;57.00;;;;;;4914191;29;20416;-87
2021/07/06 18:35:58;;;;;;;;;;;;;;;;;;;;;
2021/07/06 18:38:24;;;;;;;2.20;1.57;;;26.20;57.10;;;;;;4924110;29;20440;-87
2021/07/06 18:47:34;;;;;;;1.40;1.20;;;26.20;57.00;;;;;;4874954;29;20422;-87
2021/07/06 18:50:04;;;;;;;1.57;0.90;;;26.10;57.00;;;;;;4875696;29;20436;-87
2021/07/06 18:59:47;;;;;;;1.13;0.93;;;26.10;57.00;;;;;;4802099;29;20488;-83
2021/07/06 19:11:13;;;;;;;1.67;1.23;;;26.10;57.00;;;;;;4800384;30;20400;-84
2021/07/06 19:17:37;;;;;;;1.97;1.30;;;26.00;57.10;;;;;;4782309;30;20445;-85
2021/07/06 19:27:09;;;;;;;2.47;1.20;;;25.90;57.30;;;;;;4801382;29;20540;-85
2021/07/06 19:40:08;;;;;;;1.43;1.30;;;25.90;57.40;;;;;;4787157;29;20507;-86
2021/07/06 19:49:18;;;;;;;1.80;1.33;;;25.90;57.60;;;;;;4750310;30;20444;-87
2021/07/06 19:51:46;;;;;;;2.00;1.47;;;25.90;57.60;;;;;;4750358;30;20427;-87
2021/07/06 19:54:34;;;;;;;1.30;1.10;;;25.90;57.60;;;;;;4736270;30;20429;-86
2021/07/06 20:04:03;;;;;;;1.67;1.03;;;25.80;57.50;;;;;;4790674;29;20435;-87
2021/07/06 20:13:35;;;;;;;1.60;1.30;;;25.80;57.60;;;;;;4803160;30;20448;-86
2021/07/06 20:26:40;;;;;;;;;;;;;;;;;;;;;
2021/07/06 20:29:45;;;;;;;;;;;;;;;;;;;;;
2021/07/06 20:35:39;;;;;;;1.73;1.40;;;25.80;57.80;;;;;;4857140;29;20420;-87
2021/07/06 20:41:34;;;;;;;3.60;1.20;;;25.80;57.80;;;;;;4875213;29;20470;-87
2021/07/06 20:44:10;;;;;;;1.70;1.10;;;25.70;57.80;;;;;;4859697;29;20427;-87